Time;durP1;ratioP1;P1;durP2;ratioP2;P2;SDS_P1;SDS_P2;PMS_P1;PMS_P2;Temp;Humidity;BMP_temperature;BMP_pressure;BME280_temperature;BME280_humidity;BME280_pressure;Samples;Min_cycle;Max_cycle;Signal;HPM_P1;HPM_P2
2023/01/07 00:00:49;;;;;;;9.88;3.65;;;;;;;;;;5026955;28;20052;-89
2023/01/07 00:03:17;;;;;;;8.55;3.35;;;;;;;;;;5021890;28;20041;-89
2023/01/07 00:06:11;;;;;;;8.10;3.67;;;;;;;;;;5052209;28;20045;-91
2023/01/07 00:08:46;;;;;;;9.95;3.35;;;;;;;;;;5040186;28;20084;-90
2023/01/07 00:11:21;;;;;;;8.60;3.97;;;;;;;;;;5058924;28;20077;-90
2023/01/07 00:13:50;;;;;;;6.53;3.75;;;;;;;;;;5040275;28;20041;-90
2023/01/07 00:16:22;;;;;;;12.80;4.32;;;;;;;;;;5043828;28;20076;-90
2023/01/07 00:18:52;;;;;;;15.50;3.95;;;;;;;;;;5023495;28;20037;-90
2023/01/07 00:21:44;;;;;;;11.05;3.53;;;;;;;;;;5022204;28;20128;-90
2023/01/07 00:24:36;;;;;;;7.70;3.92;;;;;;;;;;5027328;28;20044;-89
2023/01/07 00:27:10;;;;;;;12.00;3.47;;;;;;;;;;5038932;28;20044;-89
2023/01/07 00:29:37;;;;;;;11.57;4.00;;;;;;;;;;5056754;28;20037;-90
2023/01/07 00:32:05;;;;;;;10.95;3.70;;;;;;;;;;5050711;28;20079;-90
2023/01/07 00:34:38;;;;;;;6.85;3.22;;;;;;;;;;5003355;28;20045;-90
2023/01/07 00:39:55;;;;;;;9.90;3.55;;;;;;;;;;4992597;28;20668;-90
2023/01/07 00:42:53;;;;;;;10.95;3.70;;;;;;;;;;4994370;28;20076;-90
2023/01/07 00:45:44;;;;;;;9.57;3.53;;;;;;;;;;4976027;28;20046;-90
2023/01/07 00:48:36;;;;;;;13.18;3.95;;;;;;;;;;4989018;28;20042;-90
2023/01/07 00:51:10;;;;;;;10.88;4.03;;;;;;;;;;4966991;28;20180;-90
2023/01/07 00:53:39;;;;;;;8.50;3.78;;;;;;;;;;4992739;28;20051;-90
2023/01/07 00:56:13;;;;;;;9.88;4.07;;;;;;;;;;4964367;28;20498;-90
2023/01/07 00:58:41;;;;;;;8.90;3.83;;;;;;;;;;4977259;28;20089;-90
2023/01/07 01:04:29;;;;;;;9.40;4.28;;;;;;;;;;4971544;28;20046;-90
2023/01/07 01:07:20;;;;;;;12.02;4.78;;;;;;;;;;4993776;28;20038;-90
2023/01/07 01:09:49;;;;;;;13.15;4.82;;;;;;;;;;4991783;28;20616;-90
2023/01/07 01:12:16;;;;;;;15.05;5.18;;;;;;;;;;5007909;28;20137;-89
2023/01/07 01:14:45;;;;;;;15.95;5.40;;;;;;;;;;4969002;28;20130;-90
2023/01/07 01:17:37;;;;;;;12.43;4.85;;;;;;;;;;5014600;28;20046;-90
2023/01/07 01:20:07;;;;;;;18.55;5.32;;;;;;;;;;5032433;28;20045;-90
2023/01/07 01:22:41;;;;;;;15.25;5.90;;;;;;;;;;5048861;28;20498;-91
2023/01/07 01:25:15;;;;;;;15.13;6.68;;;;;;;;;;5023509;28;20528;-90
2023/01/07 01:28:06;;;;;;;14.00;5.93;;;;;;;;;;5024078;28;20029;-90
2023/01/07 01:30:35;;;;;;;16.20;6.13;;;;;;;;;;5023424;28;20046;-90
2023/01/07 01:35:57;;;;;;;59.15;14.30;;;;;;;;;;5055911;28;20069;-90
2023/01/07 01:38:24;;;;;;;20.80;8.45;;;;;;;;;;5024732;28;20038;-90
2023/01/07 01:40:52;;;;;;;21.35;7.10;;;;;;;;;;5052448;28;20561;-90
2023/01/07 01:43:35;;;;;;;52.42;14.55;;;;;;;;;;5030005;28;20048;-91
2023/01/07 01:46:35;;;;;;;31.27;10.45;;;;;;;;;;5024489;28;20050;-90
2023/01/07 01:49:11;;;;;;;19.58;7.35;;;;;;;;;;5019045;28;20437;-90
2023/01/07 01:51:43;;;;;;;17.42;7.55;;;;;;;;;;5042269;28;20103;-89
2023/01/07 01:54:13;;;;;;;16.25;7.88;;;;;;;;;;5025640;28;20045;-90
2023/01/07 01:56:54;;;;;;;18.25;7.30;;;;;;;;;;5056403;28;20037;-90
2023/01/07 01:59:49;;;;;;;17.90;7.10;;;;;;;;;;5026168;28;20401;-90
2023/01/07 02:02:32;;;;;;;16.92;8.10;;;;;;;;;;5019064;28;20081;-90
2023/01/07 02:05:01;;;;;;;24.75;7.35;;;;;;;;;;5034079;28;20034;-90
2023/01/07 02:10:23;;;;;;;18.98;7.30;;;;;;;;;;5050917;28;20053;-91
2023/01/07 02:13:21;;;;;;;19.27;7.43;;;;;;;;;;5008359;28;20049;-90
2023/01/07 02:16:11;;;;;;;24.13;8.73;;;;;;;;;;5026210;28;20059;-90
2023/01/07 02:19:20;;;;;;;22.83;8.65;;;;;;;;;;5042443;28;20041;-90
2023/01/07 02:22:10;;;;;;;22.20;7.85;;;;;;;;;;5033853;28;20461;-90
2023/01/07 02:25:24;;;;;;;24.05;8.30;;;;;;;;;;5048206;28;20176;-90
2023/01/07 02:28:15;;;;;;;23.67;8.10;;;;;;;;;;5052070;28;20133;-90
2023/01/07 02:31:10;;;;;;;27.40;10.35;;;;;;;;;;5058922;28;20053;-90
2023/01/07 02:33:48;;;;;;;23.25;8.73;;;;;;;;;;5023174;28;20144;-90
2023/01/07 02:37:00;;;;;;;25.60;9.52;;;;;;;;;;5029447;28;20038;-90
2023/01/07 02:39:56;;;;;;;24.80;9.32;;;;;;;;;;5056081;28;20042;-90
2023/01/07 02:43:06;;;;;;;25.45;10.02;;;;;;;;;;5051514;28;20068;-90
2023/01/07 02:45:58;;;;;;;25.95;9.93;;;;;;;;;;4932703;29;20083;-90
2023/01/07 02:48:33;;;;;;;25.15;9.70;;;;;;;;;;4948638;28;20071;-90
2023/01/07 02:51:36;;;;;;;27.70;10.00;;;;;;;;;;4938941;28;20041;-89
2023/01/07 02:54:28;;;;;;;29.33;9.90;;;;;;;;;;4942471;29;20039;-90
2023/01/07 02:57:24;;;;;;;28.20;11.50;;;;;;;;;;4933732;29;20071;-90
2023/01/07 03:00:47;;;;;;;30.75;11.02;;;;;;;;;;4941946;28;20046;-90
2023/01/07 03:03:30;;;;;;;31.98;11.10;;;;;;;;;;4949881;29;20047;-90
2023/01/07 03:06:38;;;;;;;26.70;10.70;;;;;;;;;;4946457;29;20546;-90
2023/01/07 03:09:36;;;;;;;28.95;11.57;;;;;;;;;;4931606;29;20109;-89
2023/01/07 03:12:28;;;;;;;32.63;11.05;;;;;;;;;;4917293;29;20047;-90
2023/01/07 03:15:09;;;;;;;26.10;10.85;;;;;;;;;;4924963;29;20070;-89
2023/01/07 03:17:52;;;;;;;34.55;12.13;;;;;;;;;;4923301;29;20051;-90
2023/01/07 03:20:23;;;;;;;31.90;11.45;;;;;;;;;;4942861;28;20047;-90
2023/01/07 03:22:52;;;;;;;36.22;12.60;;;;;;;;;;5012644;28;20382;-90
2023/01/07 03:25:21;;;;;;;36.83;12.55;;;;;;;;;;5026047;28;20060;-89
2023/01/07 03:27:52;;;;;;;32.78;11.93;;;;;;;;;;5024861;28;20045;-89
2023/01/07 03:30:22;;;;;;;34.45;12.15;;;;;;;;;;5021576;28;20092;-89
2023/01/07 03:33:06;;;;;;;35.28;12.52;;;;;;;;;;5029052;28;20045;-89
2023/01/07 03:35:38;;;;;;;33.30;12.40;;;;;;;;;;5006486;28;20042;-90
2023/01/07 03:38:32;;;;;;;40.70;13.55;;;;;;;;;;5014237;28;20064;-90
2023/01/07 03:42:38;;;;;;;35.75;12.45;;;;;;;;;;5021551;28;20038;-90
2023/01/07 03:44:25;;;;;;;41.30;13.32;;;;;;;;;;5028744;28;20095;-90
2023/01/07 03:46:57;;;;;;;43.22;14.50;;;;;;;;;;5030303;28;20497;-90
2023/01/07 03:49:25;;;;;;;36.80;12.60;;;;;;;;;;5027874;28;20041;-90
2023/01/07 03:51:53;;;;;;;36.33;12.55;;;;;;;;;;5030312;28;20057;-90
2023/01/07 03:54:47;;;;;;;31.75;10.95;;;;;;;;;;5025148;28;20041;-89
2023/01/07 03:57:23;;;;;;;32.35;12.07;;;;;;;;;;5040067;28;20120;-90
2023/01/07 04:00:17;;;;;;;36.78;12.68;;;;;;;;;;5026748;28;20049;-90
2023/01/07 04:03:17;;;;;;;37.85;12.88;;;;;;;;;;5005876;28;20096;-89
2023/01/07 04:05:46;;;;;;;38.22;13.18;;;;;;;;;;5020133;28;20496;-90
2023/01/07 04:08:14;;;;;;;38.72;12.73;;;;;;;;;;5025873;28;20088;-90
2023/01/07 04:10:43;;;;;;;38.00;12.35;;;;;;;;;;5029865;28;20046;-89
2023/01/07 04:13:34;;;;;;;43.63;14.13;;;;;;;;;;5041607;28;20045;-90
2023/01/07 04:16:07;;;;;;;35.33;13.05;;;;;;;;;;5031404;28;20041;-90
2023/01/07 04:18:35;;;;;;;35.53;13.60;;;;;;;;;;5026743;28;20049;-89
2023/01/07 04:21:08;;;;;;;41.45;12.57;;;;;;;;;;5049485;28;20041;-90
2023/01/07 04:23:34;;;;;;;41.58;13.85;;;;;;;;;;5020756;28;20049;-90
2023/01/07 04:26:03;;;;;;;40.05;13.40;;;;;;;;;;5059124;28;20094;-90
2023/01/07 04:28:30;;;;;;;36.95;12.05;;;;;;;;;;5060402;28;20050;-90
2023/01/07 04:30:59;;;;;;;42.08;13.82;;;;;;;;;;5059871;28;20041;-89
2023/01/07 04:33:26;;;;;;;38.55;12.75;;;;;;;;;;5015197;28;20137;-90
2023/01/07 04:35:56;;;;;;;37.10;13.43;;;;;;;;;;5028480;28;20428;-90
2023/01/07 04:38:25;;;;;;;38.72;13.60;;;;;;;;;;5046294;28;20049;-90
2023/01/07 04:41:18;;;;;;;39.63;13.75;;;;;;;;;;5027866;28;20403;-90
2023/01/07 04:44:11;;;;;;;46.30;12.93;;;;;;;;;;5044869;28;20044;-90
2023/01/07 04:46:43;;;;;;;42.80;14.10;;;;;;;;;;5032355;28;20433;-90
2023/01/07 04:49:10;;;;;;;40.70;14.27;;;;;;;;;;5026647;28;20041;-90
2023/01/07 04:51:44;;;;;;;34.40;12.60;;;;;;;;;;5028414;28;20076;-90
2023/01/07 04:54:11;;;;;;;41.08;12.18;;;;;;;;;;5026470;28;20050;-89
2023/01/07 04:56:39;;;;;;;40.83;13.82;;;;;;;;;;5048981;28;20057;-90
2023/01/07 04:59:07;;;;;;;44.42;14.10;;;;;;;;;;5033051;28;20472;-90
2023/01/07 05:01:34;;;;;;;44.25;15.15;;;;;;;;;;5009480;28;20537;-90
2023/01/07 05:04:03;;;;;;;45.25;14.30;;;;;;;;;;5023568;28;20041;-90
2023/01/07 05:06:33;;;;;;;42.05;13.48;;;;;;;;;;5040584;28;20045;-90
2023/01/07 05:09:07;;;;;;;47.20;14.55;;;;;;;;;;5037013;28;20535;-90
2023/01/07 05:11:34;;;;;;;42.30;12.50;;;;;;;;;;5029754;28;20250;-90
2023/01/07 05:14:06;;;;;;;51.50;14.63;;;;;;;;;;5029160;28;20041;-90
2023/01/07 05:16:39;;;;;;;46.95;13.43;;;;;;;;;;5028653;28;20164;-89
2023/01/07 05:19:10;;;;;;;38.28;13.23;;;;;;;;;;5026981;28;20527;-90
2023/01/07 05:21:43;;;;;;;43.13;13.88;;;;;;;;;;5026597;28;20053;-90
2023/01/07 05:24:13;;;;;;;45.13;13.52;;;;;;;;;;5040735;28;20061;-90
2023/01/07 05:26:40;;;;;;;43.65;12.98;;;;;;;;;;5028168;28;20491;-90
2023/01/07 05:29:09;;;;;;;41.25;13.50;;;;;;;;;;5014736;28;20045;-89
2023/01/07 05:31:36;;;;;;;46.70;14.50;;;;;;;;;;5002357;28;20045;-90
2023/01/07 05:34:05;;;;;;;40.72;12.98;;;;;;;;;;5049513;28;20535;-90
2023/01/07 05:36:33;;;;;;;40.47;13.50;;;;;;;;;;5031758;28;20053;-90
2023/01/07 05:39:01;;;;;;;46.55;14.10;;;;;;;;;;5044035;28;20054;-90
2023/01/07 05:41:29;;;;;;;45.33;14.07;;;;;;;;;;5036000;28;20041;-90
2023/01/07 05:43:56;;;;;;;45.95;13.63;;;;;;;;;;5019194;28;20072;-90
2023/01/07 05:46:24;;;;;;;40.03;13.02;;;;;;;;;;5035157;28;20112;-90
2023/01/07 05:48:56;;;;;;;45.63;13.25;;;;;;;;;;5032478;28;20064;-90
2023/01/07 05:51:24;;;;;;;43.58;14.05;;;;;;;;;;5067049;28;20080;-90
2023/01/07 05:54:17;;;;;;;53.05;14.80;;;;;;;;;;5025101;28;20088;-90
2023/01/07 05:56:48;;;;;;;41.63;13.45;;;;;;;;;;5032300;28;20050;-90
2023/01/07 05:59:22;;;;;;;44.22;13.13;;;;;;;;;;5034724;28;20042;-90
2023/01/07 06:01:48;;;;;;;44.33;14.35;;;;;;;;;;5026671;28;20128;-89
2023/01/07 06:04:17;;;;;;;48.95;14.18;;;;;;;;;;5034562;28;20045;-90
2023/01/07 06:06:44;;;;;;;47.90;13.80;;;;;;;;;;5026916;28;20041;-91
2023/01/07 06:09:13;;;;;;;48.10;14.02;;;;;;;;;;5030938;28;20141;-90
2023/01/07 06:11:45;;;;;;;43.63;13.80;;;;;;;;;;5038354;28;20057;-90
2023/01/07 06:14:13;;;;;;;44.35;13.25;;;;;;;;;;5026911;28;20045;-89
2023/01/07 06:17:05;;;;;;;44.97;14.00;;;;;;;;;;5025757;28;20559;-90
2023/01/07 06:19:33;;;;;;;46.22;13.73;;;;;;;;;;5016415;28;20137;-90
2023/01/07 06:22:01;;;;;;;45.30;13.35;;;;;;;;;;5023914;28;20041;-90
2023/01/07 06:24:28;;;;;;;49.25;14.63;;;;;;;;;;5033278;28;20499;-90
2023/01/07 06:27:20;;;;;;;42.42;13.73;;;;;;;;;;5026015;28;20119;-90
2023/01/07 06:29:53;;;;;;;45.25;13.57;;;;;;;;;;5040018;28;20570;-90
2023/01/07 06:32:21;;;;;;;42.40;13.70;;;;;;;;;;5027981;28;20034;-90
2023/01/07 06:34:48;;;;;;;46.65;13.85;;;;;;;;;;5031749;28;20072;-90
2023/01/07 06:37:17;;;;;;;49.40;13.48;;;;;;;;;;5011393;28;20125;-90
2023/01/07 06:40:09;;;;;;;45.88;13.68;;;;;;;;;;5019962;28;20041;-90
2023/01/07 06:42:37;;;;;;;43.20;14.68;;;;;;;;;;5022048;28;20056;-90
2023/01/07 06:45:05;;;;;;;45.58;13.57;;;;;;;;;;5013485;28;20520;-90
2023/01/07 06:47:33;;;;;;;45.17;14.85;;;;;;;;;;5031553;28;20049;-90
2023/01/07 06:50:01;;;;;;;47.58;14.45;;;;;;;;;;5028122;28;20041;-90
2023/01/07 06:52:29;;;;;;;50.70;13.55;;;;;;;;;;5032053;28;20048;-90
2023/01/07 06:55:21;;;;;;;50.13;13.93;;;;;;;;;;5014390;28;20037;-90
2023/01/07 06:57:53;;;;;;;37.70;13.88;;;;;;;;;;5036540;28;20037;-90
2023/01/07 07:00:21;;;;;;;48.17;14.88;;;;;;;;;;5033866;28;20401;-90
2023/01/07 07:03:12;;;;;;;40.28;13.20;;;;;;;;;;5036196;28;20069;-90
2023/01/07 07:05:41;;;;;;;39.53;12.93;;;;;;;;;;5030674;28;20562;-90
2023/01/07 07:08:09;;;;;;;40.22;14.45;;;;;;;;;;5032953;28;20029;-90
2023/01/07 07:10:37;;;;;;;49.88;14.93;;;;;;;;;;5037161;28;20092;-90
2023/01/07 07:13:05;;;;;;;46.55;14.75;;;;;;;;;;5035683;28;20132;-91
2023/01/07 07:15:36;;;;;;;50.30;14.07;;;;;;;;;;5028778;28;20045;-90
2023/01/07 07:18:05;;;;;;;45.08;13.93;;;;;;;;;;5034891;28;20088;-90
2023/01/07 07:20:33;;;;;;;49.83;14.55;;;;;;;;;;5032730;28;20050;-90
2023/01/07 07:23:01;;;;;;;43.85;13.60;;;;;;;;;;5025094;28;20463;-91
2023/01/07 07:25:33;;;;;;;43.88;14.38;;;;;;;;;;5033798;28;20129;-90
2023/01/07 07:28:04;;;;;;;40.92;13.32;;;;;;;;;;5022363;28;20049;-91
2023/01/07 07:30:36;;;;;;;41.80;13.70;;;;;;;;;;5035077;28;20100;-90
2023/01/07 07:33:19;;;;;;;39.17;13.55;;;;;;;;;;5035067;28;20045;-90
2023/01/07 07:35:51;;;;;;;41.38;13.98;;;;;;;;;;5042230;28;20073;-90
2023/01/07 07:38:19;;;;;;;47.38;14.75;;;;;;;;;;5026823;28;20048;-90
2023/01/07 07:40:47;;;;;;;41.90;13.57;;;;;;;;;;5031056;28;20405;-91
2023/01/07 07:43:15;;;;;;;47.28;15.23;;;;;;;;;;5038039;28;20041;-90
2023/01/07 07:45:47;;;;;;;40.65;14.45;;;;;;;;;;5011425;28;20050;-90
2023/01/07 07:48:25;;;;;;;45.33;14.45;;;;;;;;;;5030095;28;20033;-90
2023/01/07 07:50:53;;;;;;;43.42;14.90;;;;;;;;;;5020608;28;20556;-90
2023/01/07 07:53:21;;;;;;;43.40;13.63;;;;;;;;;;5025885;28;20042;-90
2023/01/07 07:55:49;;;;;;;47.35;15.38;;;;;;;;;;5015143;28;20077;-90
2023/01/07 07:58:19;;;;;;;51.30;14.68;;;;;;;;;;5029092;28;20041;-91
2023/01/07 08:00:48;;;;;;;45.50;15.63;;;;;;;;;;5009235;28;20056;-90
2023/01/07 08:03:17;;;;;;;51.95;15.32;;;;;;;;;;5032021;28;20041;-91
2023/01/07 08:06:10;;;;;;;37.50;13.25;;;;;;;;;;5011825;28;20113;-90
2023/01/07 08:08:48;;;;;;;47.60;15.13;;;;;;;;;;5027635;28;20378;-91
2023/01/07 08:11:15;;;;;;;46.13;15.43;;;;;;;;;;5023763;28;20100;-90
2023/01/07 08:14:08;;;;;;;42.05;13.30;;;;;;;;;;5038762;28;20472;-90
2023/01/07 08:17:00;;;;;;;44.90;15.18;;;;;;;;;;5005132;28;20033;-90
2023/01/07 08:19:29;;;;;;;47.85;15.85;;;;;;;;;;5029247;28;20132;-90
2023/01/07 08:21:56;;;;;;;46.72;14.43;;;;;;;;;;5063484;28;20038;-91
2023/01/07 08:24:25;;;;;;;45.15;15.02;;;;;;;;;;5057016;28;20056;-90
2023/01/07 08:26:56;;;;;;;41.60;14.90;;;;;;;;;;5025551;28;20044;-91
2023/01/07 08:29:25;;;;;;;46.22;15.75;;;;;;;;;;5026745;28;20044;-90
2023/01/07 08:31:53;;;;;;;43.83;15.20;;;;;;;;;;5040163;28;20574;-90
2023/01/07 08:34:25;;;;;;;49.10;15.50;;;;;;;;;;5031453;28;20052;-90
2023/01/07 08:36:53;;;;;;;42.03;16.27;;;;;;;;;;5060832;28;20052;-89
2023/01/07 08:39:20;;;;;;;49.13;15.65;;;;;;;;;;5028226;28;20915;-90
2023/01/07 08:41:54;;;;;;;43.50;15.75;;;;;;;;;;5013675;28;20057;-90
2023/01/07 08:44:21;;;;;;;49.72;15.50;;;;;;;;;;5027582;28;20057;-90
2023/01/07 08:46:48;;;;;;;46.97;16.30;;;;;;;;;;5034443;28;20046;-90
2023/01/07 08:49:16;;;;;;;47.90;16.52;;;;;;;;;;5025532;28;20117;-90
2023/01/07 08:51:45;;;;;;;55.90;17.95;;;;;;;;;;5028197;28;20033;-90
2023/01/07 08:54:13;;;;;;;44.10;15.27;;;;;;;;;;5031885;28;20041;-89
2023/01/07 08:56:44;;;;;;;49.15;15.80;;;;;;;;;;5004980;28;20108;-90
2023/01/07 08:59:13;;;;;;;48.60;16.55;;;;;;;;;;5010176;28;20035;-89
2023/01/07 09:01:40;;;;;;;48.33;16.10;;;;;;;;;;5030228;28;20050;-89
2023/01/07 09:04:08;;;;;;;44.88;15.77;;;;;;;;;;5027506;28;20502;-89
2023/01/07 09:06:36;;;;;;;43.05;15.40;;;;;;;;;;5014691;28;20041;-89
2023/01/07 09:09:05;;;;;;;42.92;15.55;;;;;;;;;;5032122;28;20133;-89
2023/01/07 09:11:37;;;;;;;43.42;15.10;;;;;;;;;;5028302;28;20048;-89
2023/01/07 09:14:04;;;;;;;43.00;15.07;;;;;;;;;;5019102;28;20030;-89
2023/01/07 09:16:37;;;;;;;42.75;14.98;;;;;;;;;;5026954;28;20046;-89
2023/01/07 09:19:04;;;;;;;42.47;14.95;;;;;;;;;;5024231;28;20132;-89
2023/01/07 09:21:32;;;;;;;41.58;14.50;;;;;;;;;;5028963;28;20046;-90
2023/01/07 09:24:01;;;;;;;46.20;15.70;;;;;;;;;;5036398;28;20042;-89
2023/01/07 09:26:53;;;;;;;39.42;12.95;;;;;;;;;;5023953;28;20030;-89
2023/01/07 09:29:21;;;;;;;39.17;13.68;;;;;;;;;;5025617;28;20076;-89
2023/01/07 09:31:49;;;;;;;38.28;13.27;;;;;;;;;;5035215;28;20046;-91
2023/01/07 09:34:23;;;;;;;35.08;13.20;;;;;;;;;;5026380;28;20037;-91
2023/01/07 09:36:51;;;;;;;28.83;11.82;;;;;;;;;;5065728;28;20092;-90
2023/01/07 09:39:19;;;;;;;31.25;12.65;;;;;;;;;;5065585;28;20026;-90
2023/01/07 09:42:46;;;;;;;31.88;11.30;;;;;;;;;;5031715;28;20049;-90
2023/01/07 09:45:20;;;;;;;31.90;11.45;;;;;;;;;;5025839;28;20072;-90
2023/01/07 09:47:53;;;;;;;32.13;12.13;;;;;;;;;;5041486;28;20045;-90
2023/01/07 09:50:26;;;;;;;27.50;10.57;;;;;;;;;;5050681;28;20042;-90
2023/01/07 09:52:58;;;;;;;28.33;10.50;;;;;;;;;;5033015;28;20045;-90
2023/01/07 09:55:34;;;;;;;23.23;9.57;;;;;;;;;;5063487;28;20064;-90
2023/01/07 09:58:01;;;;;;;20.67;9.32;;;;;;;;;;5030339;28;20049;-90
2023/01/07 10:00:37;;;;;;;22.40;8.93;;;;;;;;;;5060883;28;20052;-90
2023/01/07 10:03:45;;;;;;;24.33;8.60;;;;;;;;;;5047367;28;20117;-90
2023/01/07 10:06:25;;;;;;;19.80;7.60;;;;;;;;;;5005962;28;20129;-89
2023/01/07 10:09:29;;;;;;;21.00;7.70;;;;;;;;;;4993255;28;20053;-90
2023/01/07 10:12:18;;;;;;;20.52;7.88;;;;;;;;;;5005990;28;20568;-90
2023/01/07 10:14:46;;;;;;;21.45;7.68;;;;;;;;;;5002981;28;20042;-90
2023/01/07 10:17:46;;;;;;;16.35;7.45;;;;;;;;;;5004449;28;20054;-90
2023/01/07 10:20:56;;;;;;;15.68;6.55;;;;;;;;;;5006633;28;20073;-90
2023/01/07 10:23:36;;;;;;;12.80;5.68;;;;;;;;;;5005886;28;20117;-89
2023/01/07 10:26:12;;;;;;;12.68;6.07;;;;;;;;;;5022797;28;20062;-90
2023/01/07 10:28:47;;;;;;;16.85;6.05;;;;;;;;;;4971545;28;20060;-90
2023/01/07 10:31:19;;;;;;;14.82;5.43;;;;;;;;;;5011053;28;20050;-89
2023/01/07 10:33:48;;;;;;;9.98;5.10;;;;;;;;;;4999794;28;20045;-90
2023/01/07 10:36:31;;;;;;;13.23;5.30;;;;;;;;;;5012128;28;20074;-89
2023/01/07 10:39:02;;;;;;;9.38;4.70;;;;;;;;;;5019186;28;20081;-89
2023/01/07 10:41:58;;;;;;;7.53;4.28;;;;;;;;;;5021835;28;20520;-90
2023/01/07 10:45:00;;;;;;;8.57;4.40;;;;;;;;;;5019480;28;20053;-90
2023/01/07 10:47:46;;;;;;;8.10;3.90;;;;;;;;;;5035418;28;20061;-90
2023/01/07 10:50:49;;;;;;;6.70;3.80;;;;;;;;;;5061132;28;20056;-89
2023/01/07 10:53:34;;;;;;;6.85;4.15;;;;;;;;;;4997222;28;20565;-90
2023/01/07 10:56:30;;;;;;;7.65;3.33;;;;;;;;;;5008140;28;20046;-89
2023/01/07 10:59:03;;;;;;;9.07;3.78;;;;;;;;;;5018272;28;20034;-90
2023/01/07 11:01:57;;;;;;;9.93;3.92;;;;;;;;;;5006745;28;20557;-90
2023/01/07 11:04:25;;;;;;;7.25;3.38;;;;;;;;;;4978660;28;20116;-89
2023/01/07 11:07:02;;;;;;;9.80;4.35;;;;;;;;;;4980233;28;20072;-89
2023/01/07 11:09:38;;;;;;;6.75;3.63;;;;;;;;;;4983609;28;20097;-90
2023/01/07 11:12:10;;;;;;;8.02;3.58;;;;;;;;;;5003371;28;20102;-90
2023/01/07 11:14:44;;;;;;;9.85;4.45;;;;;;;;;;4975561;28;20046;-92
2023/01/07 11:35:56;;;;;;;6.00;2.90;;;;;;;;;;6343975;22;20039;-91
2023/01/07 11:38:32;;;;;;;5.53;2.80;;;;;;;;;;6282906;22;20019;-91
2023/01/07 11:41:18;;;;;;;5.55;2.63;;;;;;;;;;6310514;22;20027;-91
2023/01/07 11:44:00;;;;;;;4.80;2.33;;;;;;;;;;6321803;22;20000;-91
2023/01/07 11:46:49;;;;;;;7.95;3.10;;;;;;;;;;6261938;22;20018;-91
2023/01/07 11:49:33;;;;;;;4.45;2.60;;;;;;;;;;6310316;22;20016;-92
2023/01/07 11:52:30;;;;;;;4.22;2.33;;;;;;;;;;6281100;22;19999;-92
2023/01/07 11:55:19;;;;;;;4.47;2.25;;;;;;;;;;6282791;22;20098;-92
2023/01/07 11:57:58;;;;;;;4.50;2.40;;;;;;;;;;6260878;22;20030;-92
2023/01/07 12:01:14;;;;;;;4.65;2.08;;;;;;;;;;6248269;22;20006;-92
2023/01/07 12:03:51;;;;;;;4.05;2.33;;;;;;;;;;6258686;22;20035;-92
2023/01/07 12:06:35;;;;;;;4.70;2.00;;;;;;;;;;6285468;22;20030;-92
2023/01/07 12:09:34;;;;;;;4.85;1.95;;;;;;;;;;6253031;23;20060;-92
2023/01/07 12:15:18;;;;;;;4.05;2.00;;;;;;;;;;6287443;22;20024;-93
2023/01/07 12:17:55;;;;;;;3.45;1.90;;;;;;;;;;6250694;23;20027;-92
2023/01/07 12:25:16;;;;;;;5.95;2.00;;;;;;;;;;6080729;23;20051;-92
2023/01/07 12:28:15;;;;;;;3.20;1.52;;;;;;;;;;6055162;23;20029;-92
2023/01/07 12:31:26;;;;;;;3.60;2.00;;;;;;;;;;6071503;23;20055;-93
2023/01/07 12:34:37;;;;;;;3.67;1.75;;;;;;;;;;6107176;23;20022;-92
2023/01/07 12:37:20;;;;;;;3.10;1.52;;;;;;;;;;6103928;23;20019;-91
2023/01/07 12:39:54;;;;;;;4.90;2.08;;;;;;;;;;6076091;23;20025;-92
2023/01/07 12:46:06;;;;;;;3.40;1.52;;;;;;;;;;6116897;23;20025;-92
2023/01/07 12:48:54;;;;;;;3.08;1.52;;;;;;;;;;6141350;23;20036;-93
2023/01/07 12:51:27;;;;;;;3.10;1.50;;;;;;;;;;6093785;23;20117;-93
2023/01/07 12:54:10;;;;;;;3.40;1.70;;;;;;;;;;6120248;23;20022;-93
2023/01/07 12:57:02;;;;;;;3.40;1.70;;;;;;;;;;6057424;23;20530;-91
2023/01/07 13:00:07;;;;;;;2.95;1.55;;;;;;;;;;6174417;23;20068;-91
2023/01/07 13:02:53;;;;;;;2.35;1.35;;;;;;;;;;6170160;23;20021;-90
2023/01/07 13:05:25;;;;;;;4.68;1.70;;;;;;;;;;6192058;23;20051;-91
2023/01/07 13:08:01;;;;;;;4.88;1.80;;;;;;;;;;6164570;23;20031;-91
2023/01/07 13:10:41;;;;;;;3.47;1.90;;;;;;;;;;6166709;23;20021;-92
2023/01/07 13:13:19;;;;;;;3.08;1.60;;;;;;;;;;6167344;23;20025;-92
2023/01/07 13:15:52;;;;;;;4.22;1.67;;;;;;;;;;6286395;22;20022;-93
2023/01/07 13:18:21;;;;;;;2.75;1.45;;;;;;;;;;6285837;22;20099;-92
2023/01/07 13:21:07;;;;;;;3.67;2.05;;;;;;;;;;6290343;22;20026;-93
2023/01/07 13:23:56;;;;;;;3.13;1.45;;;;;;;;;;6276858;22;20020;-93
2023/01/07 13:27:02;;;;;;;4.55;1.90;;;;;;;;;;6287068;22;20022;-93
2023/01/07 13:29:39;;;;;;;2.75;1.60;;;;;;;;;;6251915;22;20028;-92
2023/01/07 13:32:31;;;;;;;3.50;1.42;;;;;;;;;;6290450;22;20023;-93
2023/01/07 13:35:23;;;;;;;3.05;1.77;;;;;;;;;;6286032;22;20347;-90
2023/01/07 13:38:39;;;;;;;2.80;1.67;;;;;;;;;;6291213;22;20012;-89
2023/01/07 13:42:35;;;;;;;4.88;1.85;;;;;;;;;;6290831;22;20023;-90
2023/01/07 13:45:22;;;;;;;3.05;1.70;;;;;;;;;;6326726;22;20015;-90
2023/01/07 13:47:53;;;;;;;3.20;1.98;;;;;;;;;;6298056;22;20039;-90
2023/01/07 13:50:24;;;;;;;4.50;2.15;;;;;;;;;;6298508;22;20077;-90
2023/01/07 13:52:57;;;;;;;4.97;1.88;;;;;;;;;;6295003;22;20023;-91
2023/01/07 13:55:34;;;;;;;3.83;1.73;;;;;;;;;;6265620;22;20022;-91
2023/01/07 13:58:44;;;;;;;4.10;2.22;;;;;;;;;;6272247;22;20498;-91
2023/01/07 14:01:21;;;;;;;5.90;2.50;;;;;;;;;;6237886;22;20027;-90
2023/01/07 14:03:55;;;;;;;3.33;1.70;;;;;;;;;;6256112;22;20024;-90
2023/01/07 14:06:26;;;;;;;4.55;2.00;;;;;;;;;;6287957;22;20091;-89
2023/01/07 14:09:14;;;;;;;3.55;2.08;;;;;;;;;;6275445;22;20097;-89
2023/01/07 14:11:57;;;;;;;4.30;2.13;;;;;;;;;;6247428;22;20102;-86
2023/01/07 14:14:40;;;;;;;4.45;2.20;;;;;;;;;;6253582;22;20016;-90
2023/01/07 14:17:35;;;;;;;4.25;1.80;;;;;;;;;;6255631;22;20023;-91
2023/01/07 14:20:31;;;;;;;4.70;2.40;;;;;;;;;;6281865;22;20015;-90
2023/01/07 14:23:18;;;;;;;7.25;2.28;;;;;;;;;;6281625;22;20023;-89
2023/01/07 14:26:36;;;;;;;3.83;2.10;;;;;;;;;;6283190;22;20046;-90
2023/01/07 14:29:21;;;;;;;4.57;2.72;;;;;;;;;;6296360;22;20015;-90
2023/01/07 14:32:09;;;;;;;4.18;2.40;;;;;;;;;;6257933;22;20019;-91
2023/01/07 14:34:41;;;;;;;5.40;2.70;;;;;;;;;;6295376;22;20111;-91
2023/01/07 14:37:48;;;;;;;4.22;2.55;;;;;;;;;;6290325;22;20045;-90
2023/01/07 14:40:24;;;;;;;5.75;2.33;;;;;;;;;;6291630;22;20011;-90
2023/01/07 14:42:54;;;;;;;5.20;2.45;;;;;;;;;;6256210;22;20095;-90
2023/01/07 14:45:48;;;;;;;5.55;3.17;;;;;;;;;;6232215;22;20019;-90
2023/01/07 14:48:17;;;;;;;4.13;2.35;;;;;;;;;;6245877;22;20019;-90
2023/01/07 14:50:45;;;;;;;4.43;2.70;;;;;;;;;;6295956;22;20030;-90
2023/01/07 14:53:52;;;;;;;3.42;1.90;;;;;;;;;;6268875;22;20015;-90
2023/01/07 14:56:40;;;;;;;3.63;1.95;;;;;;;;;;6270862;22;20012;-91
2023/01/07 14:59:28;;;;;;;3.95;2.28;;;;;;;;;;6286088;22;20024;-90
2023/01/07 15:02:36;;;;;;;3.25;1.92;;;;;;;;;;6297605;22;20024;-90
2023/01/07 15:05:30;;;;;;;4.88;2.40;;;;;;;;;;6294368;22;20007;-91
2023/01/07 15:16:55;;;;;;;4.10;1.80;;;;;;;;;;6284745;22;20042;-90
2023/01/07 15:19:47;;;;;;;4.35;2.10;;;;;;;;;;6292080;22;20019;-90
2023/01/07 15:22:51;;;;;;;3.35;1.90;;;;;;;;;;6268767;22;20047;-90
2023/01/07 15:25:39;;;;;;;7.18;2.03;;;;;;;;;;6281294;22;20030;-90
2023/01/07 15:28:36;;;;;;;3.75;1.88;;;;;;;;;;6263814;22;20026;-91
2023/01/07 15:31:21;;;;;;;6.07;1.83;;;;;;;;;;6264799;22;20031;-90
2023/01/07 15:34:01;;;;;;;4.45;2.22;;;;;;;;;;6264061;22;20030;-91
2023/01/07 15:36:57;;;;;;;5.68;2.80;;;;;;;;;;6262315;22;20047;-91
2023/01/07 15:39:33;;;;;;;5.95;3.20;;;;;;;;;;6233262;22;20020;-92
2023/01/07 15:42:13;;;;;;;5.03;2.42;;;;;;;;;;6289855;22;20023;-91
2023/01/07 15:44:41;;;;;;;5.57;2.50;;;;;;;;;;6227533;22;20078;-91
2023/01/07 15:47:34;;;;;;;5.30;2.33;;;;;;;;;;6291538;22;20012;-91
2023/01/07 15:50:25;;;;;;;6.22;2.33;;;;;;;;;;6268589;22;20018;-92
2023/01/07 15:52:58;;;;;;;6.10;2.35;;;;;;;;;;6235232;22;20022;-92
2023/01/07 15:55:50;;;;;;;7.80;2.33;;;;;;;;;;6260923;22;20031;-93
2023/01/07 15:58:47;;;;;;;5.68;2.10;;;;;;;;;;6255297;22;20464;-92
2023/01/07 16:01:23;;;;;;;5.38;2.47;;;;;;;;;;6269310;22;20022;-92
2023/01/07 16:03:58;;;;;;;5.82;2.38;;;;;;;;;;6293155;22;20090;-91
2023/01/07 16:06:34;;;;;;;5.60;2.22;;;;;;;;;;6289158;22;20016;-92
2023/01/07 16:09:15;;;;;;;7.70;2.13;;;;;;;;;;6285052;22;20016;-92
2023/01/07 16:11:51;;;;;;;4.82;2.35;;;;;;;;;;6292847;22;20284;-92
2023/01/07 16:14:24;;;;;;;3.72;1.70;;;;;;;;;;6258298;22;20439;-91
2023/01/07 16:17:13;;;;;;;4.63;2.10;;;;;;;;;;6296292;22;20015;-92
2023/01/07 16:19:47;;;;;;;4.63;2.00;;;;;;;;;;6235731;22;20359;-92
2023/01/07 16:22:41;;;;;;;3.75;2.00;;;;;;;;;;6294097;22;20023;-92
2023/01/07 16:26:22;;;;;;;4.18;1.95;;;;;;;;;;6298237;22;20008;-92
2023/01/07 16:28:56;;;;;;;5.13;2.15;;;;;;;;;;6264322;22;20016;-93
2023/01/07 16:31:29;;;;;;;4.07;2.15;;;;;;;;;;6295306;22;20015;-91